Ashford, West Virginia
Current Conditions -  °F | °C
As of 3:54 PM on Monday 22 Dec 2014 (Local Time) from KCRW Reporting Station
Broken Clouds Broken Clouds  
Wind Chill: 52°   Ceiling: 25000
Heat Index: 52°   Visibility: 10mi
Dew Point: 37°   Wind: 8mph
Humidity: 57%   Direction: 140°SE
Pressure: 29.92"   Gusts: NA
Location:  38.18°N, 81.71°W
Report Text: KCRW 222054Z 14007KT 10SM SCT043 SCT100 BKN250 11/03 A2992 RMK AO2 SLP135 T01110028 56017
Loading
Personal Weather Stations






























Interactive Weather Map New forecast layout! Learn more

10-Day Weather Forecast

Advertisements
Track Severe Weather on mobile